Flight Track Log - Related Links

Times and Time Zones

All times are in EDT time to prevent confusion due to time zone crossing. See the EJA922 flight status page for this flight to view local times or setup timezone preferences in your user account.

Time Position Orientation Groundspeed Altitude Reporting Facility
EDT Latitude Longitude Course Direction KTS MPH feet Rate Location/Type
Mon 08:01:59 AM 38.9167 -77.4667 218° Southwest 204 235 2,000  Level Potomac TRACON
Mon 08:02:59 AM 38.8667 -77.5167 218° Southwest 253 291 4,900 2,627 Climbing Potomac TRACON
Mon 08:05:20 AM 38.7683 -77.6683 230° Southwest 253 291 10,800 2,111 Climbing Washington Center
Mon 08:06:18 AM 38.7728 -77.7644 273° West 253 291 11,900 1,576 Climbing Washington Center
Mon 08:07:18 AM 38.8383 -77.8356 320° Northwest 244 281 13,900 1,339 Climbing Washington Center
Mon 08:08:19 AM 38.8486 -77.9533 276° West 290 334 14,600 1,328 Climbing Washington Center
Mon 08:09:20 AM 38.8522 -78.0814 272° West 327 376 16,600 2,118 Climbing Washington Center
Mon 08:10:18 AM 38.8536 -78.2094 271° West 345 397 18,800 1,866 Climbing Washington Center
Mon 08:11:19 AM 38.8531 -78.3347 270° West 357 411 20,300 1,180 Climbing Washington Center
Mon 08:12:20 AM 38.8519 -78.4625 269° West 357 411 21,200 807 Climbing Washington Center
Mon 08:13:18 AM 38.8508 -78.5931 269° West 363 418 21,900 763 Climbing Washington Center
Mon 08:14:18 AM 38.8475 -78.7261 268° West 363 418 22,700 650 Climbing Washington Center
Mon 08:15:18 AM 38.8461 -78.8622 269° West 368 423 23,200 694 Climbing Washington Center
Mon 08:16:19 AM 38.8431 -78.9714 268° West 374 430 24,100 1,082 Climbing Washington Center
Mon 08:17:20 AM 38.8403 -79.1339 269° West 384 442 25,400 1,240 Climbing Washington Center
Mon 08:18:20 AM 38.8403 -79.2725 270° West 384 442 26,600 1,261 Climbing Washington Center
Mon 08:19:19 AM 38.8381 -79.4108 269° West 384 442 27,900 1,150 Climbing Washington Center
Mon 08:20:20 AM 38.8358 -79.5467 269° West 384 442 28,900 1,131 Climbing Washington Center
Mon 08:21:21 AM 38.8333 -79.6825 269° West 406 467 30,200 1,160 Climbing Washington Center
Mon 08:22:19 AM 38.8283 -79.8261 267° West 406 467 31,200 983 Climbing Washington Center
Mon 08:23:17 AM 38.8253 -79.9697 268° West 406 467 32,100 1,050 Climbing Washington Center
Mon 08:24:19 AM 38.8214 -80.1294 268° West 406 467 33,300 1,040 Climbing Washington Center
Mon 08:25:47 AM 38.8131 -80.3322 267° West 415 478 34,700 960 Climbing Indianapolis Center
Mon 08:26:49 AM 38.8083 -80.4797 268° West 414 476 35,700 823 Climbing Indianapolis Center
Mon 08:27:51 AM 38.8050 -80.6283 268° West 417 480 36,400 585 Climbing Indianapolis Center
Mon 08:28:52 AM 38.8008 -80.7800 268° West 426 490 36,900 488 Climbing Indianapolis Center
Mon 08:29:54 AM 38.7939 -80.9636 267° West 430 495 37,400 484 Climbing Indianapolis Center
Mon 08:30:56 AM 38.7900 -81.1156 268° West 429 494 37,900 293 Climbing Indianapolis Center
Mon 08:31:57 AM 38.7844 -81.2697 267° West 434 499 38,000 49 Climbing Indianapolis Center
Mon 08:32:59 AM 38.7786 -81.4206 267° West 436 502 38,000  Level Indianapolis Center
Mon 08:34:00 AM 38.7717 -81.6017 267° West 443 510 38,000  Level Indianapolis Center
Mon 08:35:02 AM 38.7661 -81.7619 268° West 447 514 38,000  Level Indianapolis Center
Mon 08:36:04 AM 38.7597 -81.9183 267° West 444 511 38,000 49 Level Indianapolis Center
Mon 08:37:05 AM 38.7531 -82.0756 267° West 443 510 38,100 293 Climbing Indianapolis Center
Mon 08:38:07 AM 38.7461 -82.2319 267° West 441 507 38,600 435 Climbing Indianapolis Center
Mon 08:39:09 AM 38.7406 -82.3864 267° West 437 503 39,000 435 Climbing Indianapolis Center
Mon 08:40:11 AM 38.7339 -82.5425 267° West 439 505 39,500 488 Climbing Indianapolis Center
Mon 08:41:12 AM 38.7281 -82.6975 267° West 435 501 40,000 244 Climbing Indianapolis Center
Mon 08:42:14 AM 38.7197 -82.8858 267° West 444 511 40,000  Level Indianapolis Center
Mon 08:43:16 AM 38.7131 -83.0453 267° West 448 516 40,000  Level Indianapolis Center
Mon 08:44:17 AM 38.7050 -83.2150 267° West 451 519 40,000  Level Indianapolis Center
Mon 08:45:19 AM 38.6975 -83.3775 267° West 453 521 40,000  Level Indianapolis Center
Mon 08:46:21 AM 38.6894 -83.5419 266° West 458 527 40,000  Level Indianapolis Center
Mon 08:47:23 AM 38.6808 -83.7069 266° West 462 532 40,000  Level Indianapolis Center
Mon 08:48:24 AM 38.6731 -83.8731 267° West 463 533 40,000  Level Indianapolis Center
Mon 08:49:26 AM 38.6636 -84.0417 266° West 468 539 40,000  Level Indianapolis Center
Mon 08:50:28 AM 38.6553 -84.2094 266° West 471 542 40,000  Level Indianapolis Center
Mon 08:51:30 AM 38.6531 -84.3794 269° West 474 545 40,000  Level Indianapolis Center
Mon 08:52:31 AM 38.6639 -84.5633 274° West 471 542 40,000  Level Indianapolis Center
Mon 08:53:33 AM 38.6742 -84.7289 275° West 468 539 40,000  Level Indianapolis Center
Mon 08:54:35 AM 38.6839 -84.8981 274° West 478 550 40,000  Level Indianapolis Center
Mon 08:55:37 AM 38.6933 -85.0672 274° West 478 550 40,000  Level Indianapolis Center
Mon 08:56:39 AM 38.7028 -85.2353 274° West 475 547 40,000  Level Indianapolis Center
Mon 08:57:40 AM 38.7114 -85.4047 274° West 477 549 40,000  Level Indianapolis Center
Mon 08:58:42 AM 38.7214 -85.6075 274° West 476 548 40,000  Level Indianapolis Center
Mon 08:59:44 AM 38.7297 -85.7781 274° West 478 550 40,000  Level Indianapolis Center
Mon 09:00:46 AM 38.7381 -85.9550 274° West 478 550 40,000  Level Indianapolis Center
Mon 09:01:47 AM 38.7453 -86.1231 273° West 476 548 40,000  Level Indianapolis Center
Mon 09:02:49 AM 38.7528 -86.2925 273° West 477 549 40,000  Level Indianapolis Center
Mon 09:03:51 AM 38.7597 -86.4619 273° West 477 549 40,000  Level Indianapolis Center
Mon 09:04:53 AM 38.7667 -86.6319 273° West 479 551 40,000  Level Indianapolis Center
Mon 09:05:54 AM 38.7739 -86.8014 273° West 479 551 40,000  Level Indianapolis Center
Mon 09:06:56 AM 38.7817 -87.0078 273° West 484 557 40,000  Level Indianapolis Center
Mon 09:07:58 AM 38.7875 -87.1781 273° West 483 556 40,000  Level Indianapolis Center
Mon 09:09:00 AM 38.7942 -87.3497 273° West 485 558 40,000  Level Indianapolis Center
Mon 09:10:01 AM 38.7997 -87.5219 272° West 484 557 40,000  Level Indianapolis Center
Mon 09:11:03 AM 38.8050 -87.6936 272° West 484 557 40,000  Level Indianapolis Center
Mon 09:12:05 AM 38.8103 -87.8669 272° West 487 560 40,000  Level Indianapolis Center
Mon 09:13:07 AM 38.8161 -88.0408 273° West 487 560 40,000  Level Indianapolis Center
Mon 09:14:08 AM 38.8217 -88.2511 272° West 491 565 40,000  Level Indianapolis Center
Mon 09:15:03 AM 38.8231 -88.3947 271° West 492 566 40,000  Level Kansas City Center
Mon 09:16:04 AM 38.8278 -88.5689 272° West 490 564 40,000  Level Kansas City Center
Mon 09:17:06 AM 38.8322 -88.7453 272° West 487 560 40,000  Level Kansas City Center
Mon 09:18:07 AM 38.8361 -88.9208 272° West 491 565 40,000  Level Kansas City Center
Mon 09:19:07 AM 38.8428 -89.1172 273° West 498 573 40,000  Level Kansas City Center
Mon 09:20:11 AM 38.8461 -89.3064 271° West 496 571 40,000  Level Kansas City Center
Mon 09:21:12 AM 38.8500 -89.4819 272° West 495 570 40,000  Level Kansas City Center
Mon 09:22:12 AM 38.8528 -89.6619 271° West 499 574 40,000  Level Kansas City Center
Mon 09:23:17 AM 38.8539 -89.8394 271° West 501 577 40,000  Level Kansas City Center
Mon 09:24:17 AM 38.8572 -90.0211 271° West 498 573 40,000  Level Kansas City Center
Mon 09:25:18 AM 38.8603 -90.1989 271° West 497 572 40,000  Level Kansas City Center
Mon 09:26:19 AM 38.8633 -90.3775 271° West 500 575 40,000  Level Kansas City Center
Mon 09:27:22 AM 38.8719 -90.5544 274° West 497 572 40,000  Level Kansas City Center
Mon 09:28:23 AM 38.8925 -90.7433 278° West 491 565 40,000  Level Kansas City Center
Mon 09:29:24 AM 38.9128 -90.9147 279° West 490 564 40,000  Level Kansas City Center
Mon 09:30:25 AM 38.9331 -91.0894 279° West 494 568 40,000  Level Kansas City Center
Mon 09:31:29 AM 38.9536 -91.2619 279° West 492 566 40,000  Level Kansas City Center
Mon 09:32:29 AM 38.9725 -91.4353 278° West 491 565 40,000  Level Kansas City Center
Mon 09:33:32 AM 38.9958 -91.6431 278° West 490 564 40,000  Level Kansas City Center
Mon 09:34:33 AM 39.0131 -91.8064 278° West 495 570 40,000  Level Kansas City Center
Mon 09:35:33 AM 39.0311 -91.9822 278° West 498 573 40,000  Level Kansas City Center
Mon 09:36:37 AM 39.0536 -92.1914 278° West 495 570 40,000  Level Kansas City Center
Mon 09:37:37 AM 39.0717 -92.3636 278° West 490 564 40,000  Level Kansas City Center
Mon 09:38:41 AM 39.0900 -92.5378 278° West 490 564 40,000  Level Kansas City Center
Mon 09:39:41 AM 39.1089 -92.7206 278° West 493 567 40,000  Level Kansas City Center
Mon 09:40:42 AM 39.1261 -92.8975 277° West 497 572 40,000  Level Kansas City Center
Mon 09:41:46 AM 39.1439 -93.0750 277° West 500 575 40,000  Level Kansas City Center
Mon 09:42:46 AM 39.1603 -93.2514 277° West 499 574 40,000  Level Kansas City Center
Mon 09:43:50 AM 39.1781 -93.4453 277° West 503 579 40,000  Level Kansas City Center
Mon 09:44:51 AM 39.1986 -93.6453 278° West 503 579 40,000  Level Kansas City Center
Mon 09:45:51 AM 39.2133 -93.8150 276° West 501 577 40,000  Level Kansas City Center
Mon 09:46:53 AM 39.2289 -93.9861 277° West 503 579 40,000  Level Kansas City Center
Mon 09:47:56 AM 39.2469 -94.1833 277° West 499 574 40,000  Level Kansas City Center
Mon 09:48:57 AM 39.2614 -94.3536 276° West 498 573 40,000  Level Kansas City Center
Mon 09:50:01 AM 39.2789 -94.5506 277° West 496 571 40,000  Level Kansas City Center
Mon 09:51:02 AM 39.2919 -94.7208 276° West 497 572 40,000  Level Kansas City Center
Mon 09:52:05 AM 39.3078 -94.9214 276° West 505 581 40,000  Level Kansas City Center
Mon 09:53:05 AM 39.3214 -95.0903 276° West 500 575 40,000  Level Kansas City Center
Mon 09:54:09 AM 39.3389 -95.2906 277° West 497 572 40,000  Level Kansas City Center
Mon 09:55:10 AM 39.3525 -95.4786 275° West 503 579 40,000  Level Kansas City Center
Mon 09:56:11 AM 39.3650 -95.6508 275° West 500 575 40,000  Level Kansas City Center
Mon 09:57:14 AM 39.3775 -95.8222 275° West 501 577 40,000  Level Kansas City Center
Mon 09:58:15 AM 39.3922 -96.0225 275° West 502 578 40,000  Level Kansas City Center
Mon 09:59:18 AM 39.4053 -96.2011 275° West 500 575 40,000  Level Kansas City Center
Mon 10:00:19 AM 39.4164 -96.3792 275° West 499 574 40,000  Level Kansas City Center
Mon 10:01:21 AM 39.4292 -96.5650 275° West 502 578 40,000 238 Level Kansas City Center
Mon 10:02:25 AM 39.4425 -96.7650 275° West 500 575 40,500 677 Climbing Kansas City Center
Mon 10:03:25 AM 39.4539 -96.9319 275° West 493 567 41,400 992 Climbing Kansas City Center
Mon 10:04:26 AM 39.4647 -97.1211 274° West 479 551 42,500 768 Climbing Kansas City Center
Mon 10:05:30 AM 39.4753 -97.2819 275° West 472 543 43,000 238 Climbing Kansas City Center
Mon 10:06:32 AM 39.4867 -97.4714 275° West 471 542 43,000  Level Kansas City Center
Mon 10:07:35 AM 39.4978 -97.6272 275° West 483 556 43,000  Level Kansas City Center
Mon 10:08:37 AM 39.5075 -97.7986 274° West 478 550 43,000  Level Kansas City Center
Mon 10:09:37 AM 39.5183 -98.0064 274° West 488 562 43,000  Level Kansas City Center
Mon 10:10:40 AM 39.5278 -98.1800 274° West 487 560 43,000  Level Kansas City Center
Mon 10:11:41 AM 39.5367 -98.3575 274° West 492 566 43,000  Level Kansas City Center
Mon 10:12:43 AM 39.5450 -98.5356 274° West 495 570 43,000  Level Kansas City Center
Mon 10:13:47 AM 39.5550 -98.7144 274° West 489 563 43,000  Level Kansas City Center
Mon 10:14:49 AM 39.5650 -98.9292 274° West 496 571 43,000  Level Denver Center
Mon 10:15:51 AM 39.5731 -99.1089 273° West 497 572 43,000  Level Denver Center
Mon 10:16:52 AM 39.5800 -99.2872 273° West 496 571 43,000  Level Denver Center
Mon 10:17:54 AM 39.5878 -99.4661 273° West 497 572 43,000  Level Denver Center
Mon 10:18:56 AM 39.5953 -99.6469 273° West 499 574 43,000  Level Denver Center
Mon 10:19:58 AM 39.6025 -99.8256 273° West 498 573 43,000  Level Denver Center
Mon 10:20:59 AM 39.6092 -100.0183 273° West 494 568 43,000  Level Denver Center
Mon 10:22:01 AM 39.6156 -100.1869 273° West 490 564 43,000  Level Denver Center
Mon 10:23:03 AM 39.6233 -100.3867 273° West 494 568 43,000  Level Denver Center
Mon 10:24:05 AM 39.6281 -100.5536 272° West 486 559 43,000  Level Denver Center
Mon 10:25:07 AM 39.6342 -100.7519 272° West 489 563 43,000  Level Denver Center
Mon 10:26:09 AM 39.6394 -100.9200 272° West 486 559 43,000  Level Denver Center
Mon 10:27:11 AM 39.6456 -101.1172 272° West 489 563 43,000  Level Denver Center
Mon 10:28:13 AM 39.6494 -101.2850 272° West 487 560 43,000  Level Denver Center
Mon 10:29:15 AM 39.6539 -101.4792 272° West 481 554 43,000  Level Denver Center
Mon 10:30:17 AM 39.6589 -101.6447 272° West 479 551 43,000  Level Denver Center
Mon 10:31:19 AM 39.6625 -101.8097 272° West 479 551 43,000  Level Denver Center
Mon 10:32:21 AM 39.6664 -102.0011 272° West 476 548 43,000  Level Denver Center
Mon 10:33:23 AM 39.6692 -102.1650 271° West 475 547 43,000  Level Denver Center
Mon 10:34:25 AM 39.6733 -102.3572 272° West 476 548 43,000  Level Denver Center
Mon 10:35:27 AM 39.6753 -102.5225 271° West 477 549 43,000  Level Denver Center
Mon 10:36:30 AM 39.6789 -102.7136 271° West 475 547 43,000  Level Denver Center
Mon 10:37:32 AM 39.6800 -102.8675 271° West 470 541 43,000  Level Denver Center
Mon 10:38:34 AM 39.6817 -103.0375 271° West 471 542 43,000  Level Denver Center
Mon 10:39:36 AM 39.6850 -103.2408 271° West 472 543 43,000  Level Denver Center
Mon 10:40:38 AM 39.6861 -103.4092 271° West 468 539 43,000  Level Denver Center
Mon 10:41:40 AM 39.6869 -103.5789 270° West 472 543 43,000  Level Denver Center
Mon 10:42:42 AM 39.6881 -103.7486 271° West 472 543 43,000  Level Denver Center
Mon 10:43:44 AM 39.6903 -103.9228 271° West 478 550 43,000  Level Denver Center
Mon 10:44:46 AM 39.6903 -104.1258 270° West 470 541 43,000  Level Denver Center
Mon 10:45:48 AM 39.6900 -104.2983 270° West 474 545 43,000  Level Denver Center
Mon 10:46:50 AM 39.6903 -104.4681 270° West 473 544 43,000  Level Denver Center
Mon 10:47:52 AM 39.6911 -104.6386 270° West 474 545 43,000  Level Denver Center
Mon 10:48:54 AM 39.7189 -104.8342 281° West 491 565 43,000  Level Denver Center
Mon 10:49:56 AM 39.7389 -105.0008 279° West 479 551 43,000  Level Denver Center
Mon 10:50:58 AM 39.7592 -105.1672 279° West 463 533 43,000  Level Denver Center
Mon 10:52:00 AM 39.7781 -105.3353 278° West 472 543 43,000  Level Denver Center
Mon 10:53:02 AM 39.7994 -105.5036 279° West 470 541 43,000  Level Denver Center
Mon 10:54:04 AM 39.8214 -105.6692 280° West 467 537 43,000  Level Denver Center
Mon 10:55:06 AM 39.8447 -105.8678 279° West 450 518 43,000  Level Denver Center
Mon 10:56:08 AM 39.8633 -106.0350 278° West 465 535 43,000  Level Denver Center
Mon 10:57:10 AM 39.8825 -106.2017 279° West 467 537 43,000  Level Denver Center
Mon 10:58:13 AM 39.9017 -106.3678 279° West 466 536 43,000  Level Denver Center
Mon 10:59:14 AM 39.9236 -106.5508 279° West 466 536 43,000  Level Denver Center
Mon 11:00:16 AM 39.9414 -106.7175 278° West 468 539 43,000  Level Denver Center
Mon 11:01:18 AM 39.9594 -106.8906 278° West 463 533 43,000  Level Denver Center
Mon 11:02:20 AM 39.9800 -107.0758 278° West 463 533 43,000  Level Denver Center
Mon 11:03:22 AM 39.9972 -107.2356 278° West 465 535 43,000  Level Denver Center
Mon 11:04:24 AM 40.0147 -107.3975 278° West 470 541 43,000  Level Denver Center
Mon 11:05:26 AM 40.0339 -107.5847 278° West 468 539 43,000  Level Denver Center
Mon 11:06:29 AM 40.0500 -107.7450 278° West 466 536 43,000  Level Denver Center
Mon 11:07:31 AM 40.0683 -107.9344 277° West 471 542 43,000  Level Denver Center
Mon 11:08:45 AM 40.0789 -108.1528 274° West 475 547 43,000  Level Denver Center
Mon 11:09:47 AM 40.0864 -108.3161 273° West 472 543 43,000  Level Denver Center
Mon 11:10:49 AM 40.0942 -108.5050 273° West 470 541 43,000  Level Denver Center
Mon 11:11:51 AM 40.1006 -108.6697 273° West 474 545 43,000  Level Denver Center
Mon 11:12:54 AM 40.1081 -108.8633 273° West 481 554 43,000 -432 Level Denver Center
Mon 11:13:56 AM 40.1136 -109.0275 273° West 478 550 42,100 -1,179 Descending Denver Center
Mon 11:14:51 AM 40.1197 -109.1889 273° West 471 542 40,700 -1,641 Descending Salt Lake Center
Mon 11:15:53 AM 40.1269 -109.3783 273° West 469 540 38,900 -1,597 Descending Salt Lake Center
Mon 11:16:55 AM 40.1311 -109.5436 272° West 475 547 37,400 -1,500 Descending Salt Lake Center
Mon 11:17:57 AM 40.1372 -109.7136 273° West 485 558 35,800 -1,645 Descending Salt Lake Center
Mon 11:18:59 AM 40.1433 -109.9144 272° West 494 568 34,000 -1,694 Descending Salt Lake Center
Mon 11:20:01 AM 40.1489 -110.0889 272° West 500 575 32,300 -1,742 Descending Salt Lake Center
Mon 11:21:03 AM 40.1492 -110.2956 270° West 508 585 30,400 -1,161 Descending Salt Lake Center
Mon 11:22:05 AM 40.1472 -110.4725 269° West 509 586 29,900 -1,258 Descending Salt Lake Center
Mon 11:23:07 AM 40.1444 -110.6822 269° West 516 594 27,800 -1,872 Descending Salt Lake Center
Mon 11:24:10 AM 40.1428 -110.8589 269° West 510 587 26,000 -1,728 Descending Salt Lake Center
Mon 11:25:12 AM 40.1400 -111.0311 269° West 487 560 24,200 -1,887 Descending Salt Lake Center
Mon 11:26:14 AM 40.1369 -111.2364 269° West 472 543 22,100 -1,938 Descending Salt Lake Center
Mon 11:26:48 AM 40.1308 -111.3394 266° West 462 532 21,100 -1,714 Descending Salt Lake Center
Mon 11:27:31 AM 40.1297 -111.4494 269° West 444 511 19,900 -1,400 Descending Salt Lake Center
Mon 11:28:18 AM 40.1342 -111.5458 273° West 381 438 19,000 -495 Descending Salt Lake Center
Mon 11:29:20 AM 40.1742 -111.6636 294° West 360 414 19,000  Level Salt Lake Center
Mon 11:30:22 AM 40.2211 -111.7906 296° West 387 445 19,000 -677 Level Salt Lake Center
Mon 11:31:24 AM 40.2678 -111.9186 296° West 379 436 17,600 -1,500 Descending Salt Lake Center
Mon 11:32:26 AM 40.3500 -111.9975 324° Northwest 370 426 15,900 -1,740 Descending Salt Lake Center
Mon 11:33:35 AM 40.4719 -112.0617 338° Northwest 376 433 13,800 -1,790 Descending Salt Lake Center
Mon 11:34:30 AM 40.5625 -112.0733 354° North 346 398 12,200 -1,436 Descending Salt Lake Center
Mon 11:35:32 AM 40.6525 -112.0797 357° North 339 390 11,000 -581 Descending Salt Lake Center
Mon 11:36:34 AM 40.7253 -112.0881 355° North 254 292 11,000  Level Salt Lake Center
Mon 11:37:36 AM 40.7933 -112.0967 355° North 249 287 11,000 -435 Level Salt Lake Center
Mon 11:38:38 AM 40.8572 -112.1044 355° North 221 254 10,100 -1,597 Descending Salt Lake Center
Mon 11:39:40 AM 40.9108 -112.0728 24° Northeast 213 245 7,700 -2,032 Descending Salt Lake Center
Mon 11:40:42 AM 40.8708 -112.0281 140° Southeast 188 216 5,900 -1,475 Descending Salt Lake Center
Mon 11:41:42 AM 40.8331 -112.0044 155° Southeast 149 171 4,700 -823 Descending Salt Lake Center
Mon 11:42:46 AM 40.7958 -111.9978 172° South 141 162 4,200 -469 Descending Salt Lake Center
Mon 11:44:00 AM 40.7884 -111.9778 90° East  Level Estimated

Login

Don't have an account? Register now (free) for customized features, flight alerts, and more!